Detalii statie VALKAPA [00001D0A]

Toti senzorii

Date Temperatura solului [C]Precipitatii [mm]Voltaj baterie [mV]Leaf Wetness [Min]HC Air temperature [C]HC Relative humidity [%]Punctul de roua [C]
medieminmaxsumaultimatimpmedieminmaxmediemediemin
2019-10-19 23:00:00 0 6854 11.01 10.76 11.77 91.72 9.5 9.1
2019-10-20 00:00:00 0 6854 11.08 9.96 11.68 88.51 9.1 8.2
2019-10-20 01:00:00 0 6834 9.76 9.26 10.33 93.15 8.5 8
2019-10-20 02:00:00 0 6826 9.53 8.95 10.84 95.77 8.7 7.9
2019-10-20 03:00:00 0 6834 9.9 8.89 10.75 94.9 9 7.7
2019-10-20 04:00:00 0 6826 8.92 8.01 10.35 95.43 8.1 6.9
2019-10-20 05:00:00 0 6816 8.64 7.76 9.29 98.3 8.2 7.4
2019-10-20 06:00:00 0 6796 8.58 8.17 9.17 99.8 8.4 8
2019-10-20 07:00:00 0 6796 7.67 6.75 8.71 100 7.6 6.7
2019-10-20 08:00:00 0 6834 7.75 6.56 8.74 100 7.7 6.5
2019-10-20 09:00:00 0 7060 11.1 8.55 13.83 99.6 10.9 8.5
2019-10-20 10:00:00 0 7246 16.3 14.13 18.54 72.5 11 10.3
2019-10-20 11:00:00 0 7236 20.55 19.15 21.63 53.44 10.6 10.1
2019-10-20 12:00:00 0 7236 22.4 21.59 23.41 45.63 9.9 9.1
2019-10-20 13:00:00 0 7236 24.03 23.09 24.81 39.19 9 8.3
2019-10-20 14:00:00 0 7236 24.7 24.24 25.13 36.7 8.6 8.3
2019-10-20 15:00:00 0 7236 24.87 24.76 25.04 36.62 8.7 8.3
2019-10-20 16:00:00 0 7236 24.8 24.68 25 36.95 8.8 8.2
2019-10-20 17:00:00 0 7226 23.94 22.93 24.68 38.54 8.7 8.4
2019-10-20 18:00:00 0 6922 19.76 17.01 22.66 51.04 9 8.5
2019-10-20 19:00:00 0 6904 17.4 17.08 17.59 58.63 9 8.7
2019-10-20 20:00:00 0 6884 14.63 12.73 16.28 69.96 8.9 8.7
2019-10-20 21:00:00 0 6864 13.57 12.8 14.49 76.14 9.3 8.8
2019-10-20 22:00:00 0 6854 11.95 10.68 13.69 80.56 8.5 8
2019-10-20 23:00:00 0 6854 12.35 11.8 12.73 81.37 9.1 9
2019-10-21 00:00:00 0 6844 11.46 11.09 11.78 85.55 9 8.7
2019-10-21 01:00:00 0 6826 10.39 9.18 11.6 86.84 8.1 7.5
2019-10-21 02:00:00 0 6826 9.15 8.68 9.87 94.39 8.1 7.5
2019-10-21 03:00:00 0 6816 8.89 8.02 9.94 96.11 8.1 7.2
2019-10-21 04:00:00 0 6806 7.91 7.44 8.98 96.97 7.3 6.9
2019-10-21 05:00:00 0 6796 7.56 6.72 8.76 97.22 7 6.3
2019-10-21 06:00:00 0 6776 6.77 6.5 7.56 98.56 6.4 6.2
2019-10-21 07:00:00 0 6786 7.63 6.78 8.29 99.97 7.5 6.6
2019-10-21 08:00:00 0 6826 7.9 7.59 8.44 100 7.8 7.5
2019-10-21 09:00:00 0 7020 11.07 9.07 13.75 97.01 10.5 9
2019-10-21 10:00:00 0 7236 16.84 14.32 19.59 68.15 10.7 9.9
2019-10-21 11:00:00 0 7236 20.61 18.94 22.14 51.49 10 9.7
2019-10-21 12:00:00 0 7236 22.7 22.02 23.67 43.4 9.3 8.9
2019-10-21 13:00:00 0 7236 24.41 23.9 24.72 37.79 8.8 8.1
2019-10-21 14:00:00 0 7236 25.1 24.48 25.73 34.17 8 7.6
2019-10-21 15:00:00 0 7236 25.47 25.14 25.84 31.76 7.1 6.7
2019-10-21 16:00:00 0 7236 25.3 24.93 25.6 32.85 7.5 7.3
2019-10-21 17:00:00 0 7040 24.01 22.93 25.06 36.76 7.9 7.5
2019-10-21 18:00:00 0 6922 20.33 18.78 22.8 47.07 8.4 8.1
2019-10-21 19:00:00 0 6894 16.48 15.22 18.17 60.77 8.6 8.4
2019-10-21 20:00:00 0 6884 14.14 12.91 15.22 72.38 9.1 8.8
2019-10-21 21:00:00 0 6874 12.48 11.33 13.65 81.27 9.2 9